createdAt,value
2023-04-09T00:00:01.867Z,10
2023-04-09T00:05:02.226Z,10
2023-04-09T00:10:01.731Z,14
2023-04-09T00:15:02.506Z,14
2023-04-09T00:20:01.926Z,27
2023-04-09T00:25:02.255Z,10
2023-04-09T00:30:01.777Z,58
2023-04-09T00:35:02.135Z,35
2023-04-09T00:40:01.512Z,24
2023-04-09T00:45:02.308Z,11
2023-04-09T00:50:01.694Z,9
2023-04-09T00:55:02.053Z,10
2023-04-09T01:00:01.528Z,9
2023-04-09T01:05:01.878Z,9
2023-04-09T01:10:02.283Z,9
2023-04-09T01:15:01.711Z,10
2023-04-09T01:20:02.566Z,10
2023-04-09T01:25:02.348Z,11
2023-04-09T01:30:01.691Z,8
2023-04-09T01:35:02.263Z,10
2023-04-09T01:40:01.633Z,11
2023-04-09T01:45:02.019Z,9
2023-04-09T01:50:01.387Z,11
2023-04-09T01:55:01.768Z,11
2023-04-09T02:00:02.296Z,10
2023-04-09T02:05:01.653Z,9
2023-04-09T02:10:02.145Z,10
2023-04-09T02:15:01.530Z,10
2023-04-09T02:20:01.990Z,9
2023-04-09T02:25:01.766Z,10
2023-04-09T02:30:02.222Z,11
2023-04-09T02:35:01.717Z,10
2023-04-09T02:40:02.232Z,10
2023-04-09T02:45:01.716Z,11
2023-04-09T02:50:02.095Z,11
2023-04-09T02:55:01.587Z,10
2023-04-09T03:00:01.946Z,12
2023-04-09T03:05:01.749Z,10
2023-04-09T03:10:02.137Z,10
2023-04-09T03:15:01.512Z,11
2023-04-09T03:20:01.943Z,11
2023-04-09T03:25:02.319Z,11
2023-04-09T03:30:01.702Z,12
2023-04-09T03:35:02.075Z,9
2023-04-09T03:40:01.485Z,9
2023-04-09T03:45:01.813Z,13
2023-04-09T03:50:02.319Z,10
2023-04-09T03:55:01.644Z,13
2023-04-09T04:00:02.051Z,11
2023-04-09T04:05:01.603Z,10
2023-04-09T04:10:01.983Z,12
2023-04-09T04:15:01.326Z,10
2023-04-09T04:20:01.725Z,9
2023-04-09T04:25:02.093Z,11
2023-04-09T04:30:01.549Z,12
2023-04-09T04:35:01.929Z,23
2023-04-09T04:40:01.429Z,77
2023-04-09T04:45:01.806Z,10
2023-04-09T04:50:01.974Z,11
2023-04-09T04:55:01.323Z,11
2023-04-09T05:00:01.813Z,11
2023-04-09T05:05:02.225Z,11
2023-04-09T05:10:01.617Z,11
2023-04-09T05:15:01.958Z,75
2023-04-09T05:20:01.371Z,42
2023-04-09T05:25:01.763Z,44
2023-04-09T05:30:02.133Z,56
2023-04-09T05:35:01.466Z,60
2023-04-09T05:40:01.889Z,79
2023-04-09T05:45:01.367Z,11
2023-04-09T05:50:02.140Z,11
2023-04-09T05:55:01.606Z,10
2023-04-09T06:00:02.050Z,10
2023-04-09T06:05:01.509Z,11
2023-04-09T06:10:02.367Z,10
2023-04-09T06:15:01.879Z,25
2023-04-09T06:20:01.723Z,70
2023-04-09T06:25:02.098Z,59
2023-04-09T06:30:01.878Z,37
2023-04-09T06:35:02.241Z,40
2023-04-09T06:40:01.825Z,81
2023-04-09T06:45:02.412Z,9
2023-04-09T06:50:02.250Z,73
2023-04-09T06:55:01.764Z,37
2023-04-09T07:00:02.557Z,56
2023-04-09T07:05:01.934Z,42
2023-04-09T07:10:01.396Z,43
2023-04-09T07:15:01.954Z,41
2023-04-09T07:20:01.540Z,47
2023-04-09T07:25:02.083Z,49
2023-04-09T07:30:01.428Z,51
2023-04-09T07:35:01.950Z,48
2023-04-09T07:40:01.496Z,53
2023-04-09T07:45:01.854Z,11
2023-04-09T07:50:02.613Z,10
2023-04-09T07:55:02.011Z,10
2023-04-09T08:00:01.779Z,11
2023-04-09T08:05:02.295Z,13
2023-04-09T08:10:02.114Z,10
2023-04-09T08:15:01.638Z,14
2023-04-09T08:20:02.061Z,12
2023-04-09T08:25:02.771Z,11
2023-04-09T08:30:01.512Z,15
2023-04-09T08:35:02.298Z,14
2023-04-09T08:40:01.814Z,11
2023-04-09T08:45:02.307Z,11
2023-04-09T08:50:02.080Z,14
2023-04-09T08:55:01.478Z,13
2023-04-09T09:00:02.019Z,13
2023-04-09T09:05:01.391Z,15
2023-04-09T09:10:01.764Z,13
2023-04-09T09:15:02.301Z,78
2023-04-09T09:20:01.717Z,43
2023-04-09T09:25:02.079Z,73
2023-04-09T09:30:01.474Z,93
2023-04-09T09:35:02.252Z,91
2023-04-09T09:40:01.693Z,75
2023-04-09T09:45:02.526Z,16
2023-04-09T09:50:01.876Z,76
2023-04-09T09:55:02.433Z,25
2023-04-09T10:00:02.273Z,89
2023-04-09T10:05:01.799Z,36
2023-04-09T10:10:02.599Z,65
2023-04-09T10:15:01.979Z,42
2023-04-09T10:20:02.289Z,70
2023-04-09T10:25:01.806Z,76
2023-04-09T10:30:02.164Z,43
2023-04-09T10:35:01.698Z,40
2023-04-09T10:40:02.209Z,54
2023-04-09T10:45:02.040Z,19
2023-04-09T10:50:01.803Z,19
2023-04-09T10:55:02.577Z,21
2023-04-09T11:00:02.068Z,23
2023-04-09T11:05:01.711Z,20
2023-04-09T11:10:02.244Z,20
2023-04-09T11:15:01.629Z,17
2023-04-09T11:20:02.232Z,18
2023-04-09T11:25:01.645Z,19
2023-04-09T11:30:02.465Z,16
2023-04-09T11:35:01.839Z,13
2023-04-09T11:40:02.247Z,19
2023-04-09T11:45:01.625Z,15
2023-04-09T11:50:02.054Z,21
2023-04-09T11:55:01.455Z,22
2023-04-09T12:00:03.838Z,17
2023-04-09T12:05:01.526Z,51
2023-04-09T12:10:02.386Z,84
2023-04-09T12:15:02.162Z,101
2023-04-09T12:20:02.016Z,105
2023-04-09T12:25:01.507Z,95
2023-04-09T12:30:02.002Z,89
2023-04-09T12:35:01.370Z,81
2023-04-09T12:40:01.917Z,85
2023-04-09T12:45:02.448Z,55
2023-04-09T12:50:01.791Z,85
2023-04-09T12:55:02.187Z,58
2023-04-09T13:00:02.007Z,90
2023-04-09T13:05:01.795Z,61
2023-04-09T13:10:02.294Z,98
2023-04-09T13:15:01.678Z,53
2023-04-09T13:20:02.233Z,50
2023-04-09T13:25:01.828Z,87
2023-04-09T13:30:02.350Z,60
2023-04-09T13:35:01.690Z,52
2023-04-09T13:40:02.482Z,88
2023-04-09T13:45:02.269Z,22
2023-04-09T13:50:01.626Z,43
2023-04-09T13:55:01.979Z,41
2023-04-09T14:00:01.467Z,79
2023-04-09T14:05:02.305Z,66
2023-04-09T14:10:01.842Z,66
2023-04-09T14:15:02.307Z,31
2023-04-09T14:20:01.797Z,74
2023-04-09T14:25:02.309Z,80
2023-04-09T14:30:01.717Z,43
2023-04-09T14:35:02.071Z,61
2023-04-09T14:40:01.559Z,63
2023-04-09T14:45:02.414Z,70
2023-04-09T14:50:01.924Z,78
2023-04-09T14:55:02.381Z,84
2023-04-09T15:00:02.177Z,77
2023-04-09T15:05:01.761Z,66
2023-04-09T15:10:02.279Z,53
2023-04-09T15:15:01.815Z,69
2023-04-09T15:20:02.689Z,95
2023-04-09T15:25:02.029Z,47
2023-04-09T15:30:01.405Z,79
2023-04-09T15:35:01.801Z,82
2023-04-09T15:40:02.236Z,50
2023-04-09T15:45:01.602Z,17
2023-04-09T15:50:02.063Z,22
2023-04-09T15:55:01.437Z,23
2023-04-09T16:00:02.235Z,88
2023-04-09T16:05:01.736Z,49
2023-04-09T16:10:02.142Z,88
2023-04-09T16:15:01.504Z,98
2023-04-09T16:20:01.947Z,92
2023-04-09T16:25:01.772Z,50
2023-04-09T16:30:02.618Z,87
2023-04-09T16:35:02.418Z,49
2023-04-09T16:40:01.921Z,41
2023-04-09T16:45:01.429Z,65
2023-04-09T16:50:02.253Z,56
2023-04-09T16:55:01.605Z,51
2023-04-09T17:00:02.025Z,55
2023-04-09T17:05:01.514Z,38
2023-04-09T17:10:02.383Z,93
2023-04-09T17:15:01.793Z,39
2023-04-09T17:20:02.214Z,40
2023-04-09T17:25:01.572Z,86
2023-04-09T17:30:02.028Z,68
2023-04-09T17:35:01.386Z,64
2023-04-09T17:40:01.810Z,64
2023-04-09T17:45:02.614Z,23
2023-04-09T17:50:02.408Z,29
2023-04-09T17:55:01.779Z,24
2023-04-09T18:00:02.254Z,56
2023-04-09T18:05:01.820Z,64
2023-04-09T18:10:01.717Z,56
2023-04-09T18:15:02.276Z,73
2023-04-09T18:20:02.156Z,51
2023-04-09T18:25:01.518Z,48
2023-04-09T18:30:01.886Z,65
2023-04-09T18:35:02.280Z,39
2023-04-09T18:40:02.828Z,39
2023-04-09T18:45:01.497Z,48
2023-04-09T18:50:01.873Z,73
2023-04-09T18:55:02.646Z,70
2023-04-09T19:00:02.134Z,58
2023-04-09T19:05:01.529Z,44
2023-04-09T19:10:02.454Z,57
2023-04-09T19:15:02.250Z,83
2023-04-09T19:20:02.014Z,48
2023-04-09T19:25:01.526Z,68
2023-04-09T19:30:01.963Z,69
2023-04-09T19:35:01.844Z,50
2023-04-09T19:40:02.656Z,62
2023-04-09T19:45:02.045Z,61
2023-04-09T19:50:01.517Z,70
2023-04-09T19:55:02.117Z,73
2023-04-09T20:00:01.483Z,40
2023-04-09T20:05:01.933Z,54
2023-04-09T20:10:01.466Z,60
2023-04-09T20:15:01.819Z,48
2023-04-09T20:20:02.400Z,55
2023-04-09T20:25:01.841Z,58
2023-04-09T20:30:02.602Z,65
2023-04-09T20:35:01.945Z,43
2023-04-09T20:40:01.496Z,54
2023-04-09T20:45:02.171Z,54
2023-04-09T20:50:01.824Z,42
2023-04-09T20:55:02.188Z,40
2023-04-09T21:00:01.597Z,63
2023-04-09T21:05:08.756Z,61
2023-04-09T21:10:02.158Z,59
2023-04-09T21:15:01.570Z,56
2023-04-09T21:20:02.247Z,65
2023-04-09T21:25:01.602Z,55
2023-04-09T21:30:01.999Z,38
2023-04-09T21:35:01.507Z,57
2023-04-09T21:40:01.960Z,34
2023-04-09T21:45:01.774Z,44
2023-04-09T21:50:02.524Z,32
2023-04-09T21:55:01.859Z,23
2023-04-09T22:00:02.749Z,45
2023-04-09T22:05:01.837Z,134
2023-04-09T22:10:02.697Z,51
2023-04-09T22:15:02.289Z,34
2023-04-09T22:20:02.428Z,49
2023-04-09T22:25:02.318Z,34
2023-04-09T22:30:01.691Z,50
2023-04-09T22:35:02.468Z,55
2023-04-09T22:40:01.855Z,37
2023-04-09T22:45:02.331Z,12
2023-04-09T22:50:01.947Z,12
2023-04-09T22:55:01.332Z,13
2023-04-09T23:00:01.714Z,11
2023-04-09T23:05:02.239Z,13
2023-04-09T23:10:01.761Z,71
2023-04-09T23:15:02.152Z,57
2023-04-09T23:20:01.733Z,28
2023-04-09T23:25:02.097Z,72
2023-04-09T23:30:01.468Z,75
2023-04-09T23:35:01.819Z,42
2023-04-09T23:40:02.331Z,71
2023-04-09T23:45:02.124Z,14
2023-04-09T23:50:01.463Z,11
2023-04-09T23:55:02.032Z,71
